sensor_id;sensor_type;location;lat;lon;timestamp;pressure;altitude;pressure_sealevel;temperature;humidity
58473;BME280;44775;51.564;5.460;2023-02-18T00:00:20;101989.84;;;10.39;100.00
58473;BME280;44775;51.564;5.460;2023-02-18T00:02:47;101985.16;;;10.32;100.00
58473;BME280;44775;51.564;5.460;2023-02-18T00:05:14;101977.59;;;10.37;100.00
58473;BME280;44775;51.564;5.460;2023-02-18T00:07:40;101972.94;;;10.29;100.00
58473;BME280;44775;51.564;5.460;2023-02-18T00:10:09;101980.66;;;10.32;100.00
58473;BME280;44775;51.564;5.460;2023-02-18T00:12:35;101970.97;;;10.31;100.00
58473;BME280;44775;51.564;5.460;2023-02-18T00:15:00;101972.81;;;10.31;100.00
58473;BME280;44775;51.564;5.460;2023-02-18T00:17:27;101964.22;;;10.37;100.00
58473;BME280;44775;51.564;5.460;2023-02-18T00:19:53;101963.78;;;10.32;100.00
58473;BME280;44775;51.564;5.460;2023-02-18T00:22:18;101969.97;;;10.32;100.00
58473;BME280;44775;51.564;5.460;2023-02-18T00:24:43;101970.84;;;10.33;100.00
58473;BME280;44775;51.564;5.460;2023-02-18T00:27:09;101967.19;;;10.34;100.00
58473;BME280;44775;51.564;5.460;2023-02-18T00:29:34;101963.09;;;10.30;100.00
58473;BME280;44775;51.564;5.460;2023-02-18T00:31:59;101957.03;;;10.28;100.00
58473;BME280;44775;51.564;5.460;2023-02-18T00:34:25;101956.22;;;10.37;100.00
58473;BME280;44775;51.564;5.460;2023-02-18T00:36:50;101955.09;;;10.39;100.00
58473;BME280;44775;51.564;5.460;2023-02-18T00:39:15;101953.66;;;10.35;100.00
58473;BME280;44775;51.564;5.460;2023-02-18T00:41:41;101954.22;;;10.39;100.00
58473;BME280;44775;51.564;5.460;2023-02-18T00:44:07;101947.06;;;10.30;100.00
58473;BME280;44775;51.564;5.460;2023-02-18T00:46:33;101932.00;;;10.29;100.00
58473;BME280;44775;51.564;5.460;2023-02-18T00:48:58;101932.28;;;10.35;100.00
58473;BME280;44775;51.564;5.460;2023-02-18T00:51:24;101926.94;;;10.35;100.00
58473;BME280;44775;51.564;5.460;2023-02-18T00:53:50;101924.44;;;10.34;100.00
58473;BME280;44775;51.564;5.460;2023-02-18T00:56:15;101922.16;;;10.39;100.00
58473;BME280;44775;51.564;5.460;2023-02-18T00:58:41;101926.38;;;10.42;100.00
58473;BME280;44775;51.564;5.460;2023-02-18T01:01:07;101923.31;;;10.36;100.00
58473;BME280;44775;51.564;5.460;2023-02-18T01:03:34;101920.47;;;10.38;100.00
58473;BME280;44775;51.564;5.460;2023-02-18T01:05:59;101921.59;;;10.35;100.00
58473;BME280;44775;51.564;5.460;2023-02-18T01:08:25;101912.47;;;10.38;100.00
58473;BME280;44775;51.564;5.460;2023-02-18T01:10:53;101914.59;;;10.34;100.00
58473;BME280;44775;51.564;5.460;2023-02-18T01:13:19;101915.41;;;10.35;100.00
58473;BME280;44775;51.564;5.460;2023-02-18T01:15:45;101899.66;;;10.32;100.00
58473;BME280;44775;51.564;5.460;2023-02-18T01:18:11;101911.19;;;10.42;100.00
58473;BME280;44775;51.564;5.460;2023-02-18T01:20:39;101903.34;;;10.31;100.00
58473;BME280;44775;51.564;5.460;2023-02-18T01:23:04;101901.38;;;10.33;100.00
58473;BME280;44775;51.564;5.460;2023-02-18T01:25:30;101904.59;;;10.27;100.00
58473;BME280;44775;51.564;5.460;2023-02-18T01:27:56;101890.94;;;10.20;100.00
58473;BME280;44775;51.564;5.460;2023-02-18T01:30:22;101901.94;;;10.27;100.00
58473;BME280;44775;51.564;5.460;2023-02-18T01:32:47;101902.47;;;10.21;100.00
58473;BME280;44775;51.564;5.460;2023-02-18T01:35:16;101897.66;;;10.14;100.00
58473;BME280;44775;51.564;5.460;2023-02-18T01:37:41;101898.78;;;10.12;100.00
58473;BME280;44775;51.564;5.460;2023-02-18T01:40:09;101893.59;;;10.20;100.00
58473;BME280;44775;51.564;5.460;2023-02-18T01:42:35;101900.91;;;10.08;100.00
58473;BME280;44775;51.564;5.460;2023-02-18T01:48:14;101898.78;;;10.12;100.00
58473;BME280;44775;51.564;5.460;2023-02-18T01:50:44;101892.19;;;10.06;100.00
58473;BME280;44775;51.564;5.460;2023-02-18T01:53:19;101896.53;;;9.98;100.00
58473;BME280;44775;51.564;5.460;2023-02-18T01:55:47;101888.94;;;9.93;100.00
58473;BME280;44775;51.564;5.460;2023-02-18T01:58:13;101889.22;;;9.90;100.00
58473;BME280;44775;51.564;5.460;2023-02-18T02:00:39;101881.78;;;9.93;100.00
58473;BME280;44775;51.564;5.460;2023-02-18T02:03:05;101878.28;;;9.93;100.00
58473;BME280;44775;51.564;5.460;2023-02-18T02:05:31;101878.97;;;9.95;100.00
58473;BME280;44775;51.564;5.460;2023-02-18T02:07:57;101880.22;;;9.91;100.00
58473;BME280;44775;51.564;5.460;2023-02-18T02:10:27;101876.88;;;9.89;100.00
58473;BME280;44775;51.564;5.460;2023-02-18T02:13:25;101869.25;;;9.84;100.00
58473;BME280;44775;51.564;5.460;2023-02-18T02:16:05;101871.25;;;9.82;100.00
58473;BME280;44775;51.564;5.460;2023-02-18T02:38:36;101839.19;;;9.63;100.00
58473;BME280;44775;51.564;5.460;2023-02-18T02:41:13;101838.19;;;9.64;100.00
58473;BME280;44775;51.564;5.460;2023-02-18T02:44:01;101830.34;;;9.62;100.00
58473;BME280;44775;51.564;5.460;2023-02-18T02:46:38;101826.94;;;9.60;100.00
58473;BME280;44775;51.564;5.460;2023-02-18T02:49:27;101820.88;;;9.58;100.00
58473;BME280;44775;51.564;5.460;2023-02-18T02:52:13;101815.44;;;9.60;100.00
58473;BME280;44775;51.564;5.460;2023-02-18T02:54:41;101811.34;;;9.56;100.00
58473;BME280;44775;51.564;5.460;2023-02-18T02:59:40;101812.63;;;9.71;100.00
58473;BME280;44775;51.564;5.460;2023-02-18T03:02:24;101797.75;;;9.59;100.00
58473;BME280;44775;51.564;5.460;2023-02-18T03:18:00;101761.06;;;9.51;100.00
58473;BME280;44775;51.564;5.460;2023-02-18T03:20:33;101750.25;;;9.53;100.00
58473;BME280;44775;51.564;5.460;2023-02-18T03:23:01;101742.09;;;9.44;100.00
58473;BME280;44775;51.564;5.460;2023-02-18T03:25:28;101752.66;;;9.46;100.00
58473;BME280;44775;51.564;5.460;2023-02-18T03:27:58;101739.31;;;9.46;100.00
58473;BME280;44775;51.564;5.460;2023-02-18T03:30:36;101723.69;;;9.51;100.00
58473;BME280;44775;51.564;5.460;2023-02-18T03:33:05;101725.25;;;9.44;100.00
58473;BME280;44775;51.564;5.460;2023-02-18T03:35:31;101722.19;;;9.39;100.00
58473;BME280;44775;51.564;5.460;2023-02-18T03:38:06;101709.94;;;9.36;100.00
58473;BME280;44775;51.564;5.460;2023-02-18T03:40:34;101714.16;;;9.39;100.00
58473;BME280;44775;51.564;5.460;2023-02-18T03:42:59;101718.25;;;9.43;100.00
58473;BME280;44775;51.564;5.460;2023-02-18T03:45:25;101712.47;;;9.38;100.00
58473;BME280;44775;51.564;5.460;2023-02-18T03:47:51;101703.34;;;9.40;100.00
58473;BME280;44775;51.564;5.460;2023-02-18T03:50:17;101702.34;;;9.41;100.00
58473;BME280;44775;51.564;5.460;2023-02-18T03:52:42;101707.13;;;9.38;100.00
58473;BME280;44775;51.564;5.460;2023-02-18T03:55:08;101701.78;;;9.38;100.00
58473;BME280;44775;51.564;5.460;2023-02-18T03:57:33;101694.78;;;9.37;100.00
58473;BME280;44775;51.564;5.460;2023-02-18T03:59:59;101695.06;;;9.34;100.00
58473;BME280;44775;51.564;5.460;2023-02-18T04:02:25;101689.31;;;9.38;100.00
58473;BME280;44775;51.564;5.460;2023-02-18T04:04:50;101687.91;;;9.34;100.00
58473;BME280;44775;51.564;5.460;2023-02-18T04:07:15;101681.31;;;9.38;100.00
58473;BME280;44775;51.564;5.460;2023-02-18T04:09:41;101679.50;;;9.39;100.00
58473;BME280;44775;51.564;5.460;2023-02-18T04:12:06;101684.66;;;9.40;100.00
58473;BME280;44775;51.564;5.460;2023-02-18T04:14:31;101673.44;;;9.37;100.00
58473;BME280;44775;51.564;5.460;2023-02-18T04:16:57;101673.44;;;9.37;100.00
58473;BME280;44775;51.564;5.460;2023-02-18T04:19:22;101675.69;;;9.32;100.00
58473;BME280;44775;51.564;5.460;2023-02-18T04:21:47;101675.28;;;9.36;100.00
58473;BME280;44775;51.564;5.460;2023-02-18T04:24:13;101666.28;;;9.47;100.00
58473;BME280;44775;51.564;5.460;2023-02-18T04:26:38;101669.94;;;9.36;100.00
58473;BME280;44775;51.564;5.460;2023-02-18T04:29:03;101673.59;;;9.35;100.00
58473;BME280;44775;51.564;5.460;2023-02-18T04:31:28;101664.44;;;9.38;100.00
58473;BME280;44775;51.564;5.460;2023-02-18T04:33:54;101668.81;;;9.39;100.00
58473;BME280;44775;51.564;5.460;2023-02-18T04:36:19;101676.25;;;9.35;100.00
58473;BME280;44775;51.564;5.460;2023-02-18T04:38:44;101659.69;;;9.32;100.00
58473;BME280;44775;51.564;5.460;2023-02-18T04:41:10;101660.81;;;9.29;100.00
58473;BME280;44775;51.564;5.460;2023-02-18T04:43:37;101663.47;;;9.39;100.00
58473;BME280;44775;51.564;5.460;2023-02-18T04:46:02;101658.00;;;9.40;100.00
58473;BME280;44775;51.564;5.460;2023-02-18T04:48:28;101665.03;;;9.32;100.00
58473;BME280;44775;51.564;5.460;2023-02-18T04:50:53;101660.94;;;9.28;100.00
58473;BME280;44775;51.564;5.460;2023-02-18T04:53:18;101660.94;;;9.28;100.00
58473;BME280;44775;51.564;5.460;2023-02-18T04:55:49;101666.72;;;9.33;100.00
58473;BME280;44775;51.564;5.460;2023-02-18T04:58:14;101664.88;;;9.33;100.00
58473;BME280;44775;51.564;5.460;2023-02-18T05:00:40;101658.97;;;9.30;100.00
58473;BME280;44775;51.564;5.460;2023-02-18T05:03:05;101646.91;;;9.26;100.00
58473;BME280;44775;51.564;5.460;2023-02-18T05:05:30;101644.25;;;9.26;100.00
58473;BME280;44775;51.564;5.460;2023-02-18T05:07:55;101641.72;;;9.24;100.00
58473;BME280;44775;51.564;5.460;2023-02-18T05:10:21;101647.88;;;9.25;100.00
58473;BME280;44775;51.564;5.460;2023-02-18T05:12:46;101642.28;;;9.28;100.00
58473;BME280;44775;51.564;5.460;2023-02-18T05:15:11;101639.31;;;9.31;100.00
58473;BME280;44775;51.564;5.460;2023-02-18T05:17:37;101642.41;;;9.36;100.00
58473;BME280;44775;51.564;5.460;2023-02-18T05:20:04;101637.66;;;9.39;100.00
58473;BME280;44775;51.564;5.460;2023-02-18T05:22:29;101629.50;;;9.31;100.00
58473;BME280;44775;51.564;5.460;2023-02-18T05:24:54;101632.59;;;9.27;100.00
58473;BME280;44775;51.564;5.460;2023-02-18T05:27:20;101626.25;;;9.28;100.00
58473;BME280;44775;51.564;5.460;2023-02-18T05:29:45;101617.72;;;9.24;100.00
58473;BME280;44775;51.564;5.460;2023-02-18T05:32:10;101629.38;;;9.33;100.00
58473;BME280;44775;51.564;5.460;2023-02-18T05:34:36;101631.03;;;9.24;100.00
58473;BME280;44775;51.564;5.460;2023-02-18T05:37:01;101627.53;;;9.23;100.00
58473;BME280;44775;51.564;5.460;2023-02-18T05:39:26;101625.88;;;9.22;100.00
58473;BME280;44775;51.564;5.460;2023-02-18T05:41:52;101629.38;;;9.23;100.00
58473;BME280;44775;51.564;5.460;2023-02-18T05:44:17;101625.31;;;9.29;100.00
58473;BME280;44775;51.564;5.460;2023-02-18T05:46:55;101625.88;;;9.32;100.00
58473;BME280;44775;51.564;5.460;2023-02-18T05:49:21;101617.59;;;9.26;100.00
58473;BME280;44775;51.564;5.460;2023-02-18T05:51:46;101622.09;;;9.25;100.00
58473;BME280;44775;51.564;5.460;2023-02-18T05:54:11;101627.13;;;9.28;100.00
58473;BME280;44775;51.564;5.460;2023-02-18T05:56:37;101608.31;;;9.20;100.00
58473;BME280;44775;51.564;5.460;2023-02-18T05:59:02;101607.88;;;9.25;100.00
58473;BME280;44775;51.564;5.460;2023-02-18T06:01:28;101607.75;;;9.16;100.00
58473;BME280;44775;51.564;5.460;2023-02-18T06:03:53;101585.97;;;9.21;100.00
58473;BME280;44775;51.564;5.460;2023-02-18T06:06:19;101588.09;;;9.17;100.00
58473;BME280;44775;51.564;5.460;2023-02-18T06:08:44;101590.06;;;9.15;100.00
58473;BME280;44775;51.564;5.460;2023-02-18T06:11:09;101574.06;;;9.15;100.00
58473;BME280;44775;51.564;5.460;2023-02-18T06:13:35;101580.38;;;9.34;100.00
58473;BME280;44775;51.564;5.460;2023-02-18T06:16:00;101598.91;;;9.26;100.00
58473;BME280;44775;51.564;5.460;2023-02-18T06:18:26;101596.97;;;9.18;100.00
58473;BME280;44775;51.564;5.460;2023-02-18T06:20:51;101601.59;;;9.26;100.00
58473;BME280;44775;51.564;5.460;2023-02-18T06:23:17;101574.06;;;9.15;100.00
58473;BME280;44775;51.564;5.460;2023-02-18T06:25:43;101585.41;;;9.27;100.00
58473;BME280;44775;51.564;5.460;2023-02-18T06:28:08;101583.31;;;9.21;100.00
58473;BME280;44775;51.564;5.460;2023-02-18T06:30:34;101598.75;;;9.17;100.00
58473;BME280;44775;51.564;5.460;2023-02-18T06:32:59;101571.69;;;9.12;100.00
58473;BME280;44775;51.564;5.460;2023-02-18T06:35:24;101592.03;;;9.13;100.00
58473;BME280;44775;51.564;5.460;2023-02-18T06:37:50;101577.44;;;9.17;100.00
58473;BME280;44775;51.564;5.460;2023-02-18T06:40:15;101589.38;;;9.13;100.00
58473;BME280;44775;51.564;5.460;2023-02-18T06:42:41;101587.97;;;9.09;100.00
58473;BME280;44775;51.564;5.460;2023-02-18T06:45:07;101591.63;;;9.08;100.00
58473;BME280;44775;51.564;5.460;2023-02-18T06:47:32;101587.81;;;9.11;100.00
58473;BME280;44775;51.564;5.460;2023-02-18T06:49:58;101581.78;;;9.18;100.00
58473;BME280;44775;51.564;5.460;2023-02-18T06:52:23;101591.59;;;9.28;100.00
58473;BME280;44775;51.564;5.460;2023-02-18T06:54:48;101600.03;;;9.13;100.00
58473;BME280;44775;51.564;5.460;2023-02-18T06:57:14;101570.13;;;9.10;100.00
58473;BME280;44775;51.564;5.460;2023-02-18T06:59:39;101578.13;;;9.19;100.00
58473;BME280;44775;51.564;5.460;2023-02-18T07:02:04;101588.25;;;9.35;100.00
58473;BME280;44775;51.564;5.460;2023-02-18T07:04:30;101588.66;;;9.31;100.00
58473;BME280;44775;51.564;5.460;2023-02-18T07:06:55;101587.81;;;9.20;100.00
58473;BME280;44775;51.564;5.460;2023-02-18T07:09:20;101604.38;;;9.34;100.00
58473;BME280;44775;51.564;5.460;2023-02-18T07:11:45;101602.97;;;9.30;100.00
58473;BME280;44775;51.564;5.460;2023-02-18T07:14:11;101594.81;;;9.41;100.00
58473;BME280;44775;51.564;5.460;2023-02-18T07:16:36;101587.13;;;9.28;100.00
58473;BME280;44775;51.564;5.460;2023-02-18T07:19:01;101594.53;;;9.25;100.00
58473;BME280;44775;51.564;5.460;2023-02-18T07:21:27;101597.34;;;9.33;100.00
58473;BME280;44775;51.564;5.460;2023-02-18T07:23:52;101600.31;;;9.39;100.00
58473;BME280;44775;51.564;5.460;2023-02-18T07:26:17;101614.06;;;9.35;100.00
58473;BME280;44775;51.564;5.460;2023-02-18T07:28:43;101615.59;;;9.28;100.00
58473;BME280;44775;51.564;5.460;2023-02-18T07:31:08;101605.78;;;9.18;100.00
58473;BME280;44775;51.564;5.460;2023-02-18T07:33:34;101602.97;;;9.10;100.00
58473;BME280;44775;51.564;5.460;2023-02-18T07:36:01;101606.91;;;9.16;100.00
58473;BME280;44775;51.564;5.460;2023-02-18T07:38:27;101613.63;;;9.10;100.00
58473;BME280;44775;51.564;5.460;2023-02-18T07:40:53;101618.13;;;9.10;100.00
58473;BME280;44775;51.564;5.460;2023-02-18T07:43:19;101630.50;;;9.01;100.00
58473;BME280;44775;51.564;5.460;2023-02-18T07:45:45;101633.56;;;9.06;100.00
58473;BME280;44775;51.564;5.460;2023-02-18T07:48:11;101625.72;;;8.95;100.00
58473;BME280;44775;51.564;5.460;2023-02-18T07:50:41;101631.34;;;9.02;100.00
58473;BME280;44775;51.564;5.460;2023-02-18T07:53:07;101625.16;;;9.01;100.00
58473;BME280;44775;51.564;5.460;2023-02-18T07:55:33;101624.88;;;8.94;100.00
58473;BME280;44775;51.564;5.460;2023-02-18T07:58:18;101629.34;;;9.04;100.00
58473;BME280;44775;51.564;5.460;2023-02-18T08:00:44;101628.38;;;8.95;100.00
58473;BME280;44775;51.564;5.460;2023-02-18T08:03:09;101634.41;;;8.97;100.00
58473;BME280;44775;51.564;5.460;2023-02-18T08:05:34;101635.94;;;8.99;100.00
58473;BME280;44775;51.564;5.460;2023-02-18T08:08:00;101621.91;;;9.07;100.00
58473;BME280;44775;51.564;5.460;2023-02-18T08:10:25;101621.34;;;9.04;100.00
58473;BME280;44775;51.564;5.460;2023-02-18T08:12:50;101631.03;;;9.24;100.00
58473;BME280;44775;51.564;5.460;2023-02-18T08:15:16;101625.16;;;9.20;100.00
58473;BME280;44775;51.564;5.460;2023-02-18T08:17:41;101622.47;;;9.20;100.00
58473;BME280;44775;51.564;5.460;2023-02-18T08:20:07;101626.13;;;9.39;100.00
58473;BME280;44775;51.564;5.460;2023-02-18T08:22:32;101628.38;;;9.34;100.00
58473;BME280;44775;51.564;5.460;2023-02-18T08:24:58;101624.97;;;9.51;100.00
58473;BME280;44775;51.564;5.460;2023-02-18T08:27:23;101622.75;;;9.56;100.00
58473;BME280;44775;51.564;5.460;2023-02-18T08:29:49;101619.78;;;9.59;100.00
58473;BME280;44775;51.564;5.460;2023-02-18T08:32:14;101618.50;;;9.63;100.00
58473;BME280;44775;51.564;5.460;2023-02-18T08:34:39;101623.97;;;9.72;100.00
58473;BME280;44775;51.564;5.460;2023-02-18T08:37:05;101641.09;;;9.79;100.00
58473;BME280;44775;51.564;5.460;2023-02-18T08:39:37;101623.09;;;9.90;100.00
58473;BME280;44775;51.564;5.460;2023-02-18T08:42:03;101637.72;;;9.86;100.00
58473;BME280;44775;51.564;5.460;2023-02-18T08:44:28;101636.72;;;9.78;100.00
58473;BME280;44775;51.564;5.460;2023-02-18T08:46:54;101628.44;;;9.81;100.00
58473;BME280;44775;51.564;5.460;2023-02-18T08:49:19;101636.06;;;9.76;100.00
58473;BME280;44775;51.564;5.460;2023-02-18T08:51:49;101645.31;;;9.72;100.00
58473;BME280;44775;51.564;5.460;2023-02-18T08:54:14;101636.16;;;9.84;100.00
58473;BME280;44775;51.564;5.460;2023-02-18T08:56:40;101653.28;;;9.91;100.00
58473;BME280;44775;51.564;5.460;2023-02-18T08:59:05;101656.16;;;9.70;100.00
58473;BME280;44775;51.564;5.460;2023-02-18T09:01:31;101652.34;;;9.73;100.00
58473;BME280;44775;51.564;5.460;2023-02-18T09:03:56;101650.09;;;9.78;100.00
58473;BME280;44775;51.564;5.460;2023-02-18T09:06:22;101647.16;;;9.71;100.00
58473;BME280;44775;51.564;5.460;2023-02-18T09:08:47;101660.38;;;9.73;100.00
58473;BME280;44775;51.564;5.460;2023-02-18T09:11:13;101652.38;;;9.63;100.00
58473;BME280;44775;51.564;5.460;2023-02-18T09:13:39;101648.16;;;9.60;100.00
58473;BME280;44775;51.564;5.460;2023-02-18T09:16:07;101653.78;;;9.57;100.00
58473;BME280;44775;51.564;5.460;2023-02-18T09:18:33;101645.22;;;9.44;100.00
58473;BME280;44775;51.564;5.460;2023-02-18T09:21:04;101655.47;;;9.39;100.00
58473;BME280;44775;51.564;5.460;2023-02-18T09:23:31;101655.88;;;9.34;100.00
58473;BME280;44775;51.564;5.460;2023-02-18T09:25:56;101647.03;;;9.24;100.00
58473;BME280;44775;51.564;5.460;2023-02-18T09:28:22;101656.16;;;9.41;100.00
58473;BME280;44775;51.564;5.460;2023-02-18T09:30:48;101643.25;;;9.36;100.00
58473;BME280;44775;51.564;5.460;2023-02-18T09:33:15;101642.28;;;9.28;100.00
58473;BME280;44775;51.564;5.460;2023-02-18T09:35:42;101645.09;;;9.26;100.00
58473;BME280;44775;51.564;5.460;2023-02-18T09:38:09;101643.53;;;9.23;100.00
58473;BME280;44775;51.564;5.460;2023-02-18T09:40:38;101647.88;;;9.25;100.00
58473;BME280;44775;51.564;5.460;2023-02-18T09:43:06;101654.09;;;9.25;100.00
58473;BME280;44775;51.564;5.460;2023-02-18T09:45:31;101657.16;;;9.30;100.00
58473;BME280;44775;51.564;5.460;2023-02-18T09:47:58;101665.16;;;9.40;100.00
58473;BME280;44775;51.564;5.460;2023-02-18T09:50:28;101654.34;;;9.51;100.00
58473;BME280;44775;51.564;5.460;2023-02-18T09:52:54;101658.81;;;9.60;100.00
58473;BME280;44775;51.564;5.460;2023-02-18T09:55:37;101664.31;;;9.59;100.00
58473;BME280;44775;51.564;5.460;2023-02-18T09:58:12;101654.47;;;9.59;100.00
58473;BME280;44775;51.564;5.460;2023-02-18T10:00:40;101667.81;;;9.59;100.00
58473;BME280;44775;51.564;5.460;2023-02-18T10:03:07;101666.66;;;9.72;100.00
58473;BME280;44775;51.564;5.460;2023-02-18T10:05:40;101671.03;;;9.63;100.00
58473;BME280;44775;51.564;5.460;2023-02-18T10:08:18;101663.88;;;9.63;100.00
58473;BME280;44775;51.564;5.460;2023-02-18T10:10:45;101665.53;;;9.84;100.00
58473;BME280;44775;51.564;5.460;2023-02-18T10:13:22;101668.34;;;9.82;100.00
58473;BME280;44775;51.564;5.460;2023-02-18T10:15:50;101662.84;;;9.93;100.00
58473;BME280;44775;51.564;5.460;2023-02-18T10:18:24;101664.25;;;9.88;100.00
58473;BME280;44775;51.564;5.460;2023-02-18T10:20:52;101666.25;;;9.86;100.00
58473;BME280;44775;51.564;5.460;2023-02-18T10:23:20;101670.88;;;9.84;100.00
58473;BME280;44775;51.564;5.460;2023-02-18T10:25:47;101673.97;;;9.89;100.00
58473;BME280;44775;51.564;5.460;2023-02-18T10:28:13;101686.16;;;9.82;100.00
58473;BME280;44775;51.564;5.460;2023-02-18T10:30:46;101695.97;;;10.10;100.00
58473;BME280;44775;51.564;5.460;2023-02-18T10:36:05;101695.53;;;10.05;100.00
58473;BME280;44775;51.564;5.460;2023-02-18T10:41:46;101688.34;;;10.15;100.00
58473;BME280;44775;51.564;5.460;2023-02-18T10:47:10;101691.19;;;10.14;100.00
58473;BME280;44775;51.564;5.460;2023-02-18T10:50:02;101698.81;;;9.99;100.00
58473;BME280;44775;51.564;5.460;2023-02-18T10:52:32;101696.06;;;10.18;100.00
58473;BME280;44775;51.564;5.460;2023-02-18T10:55:03;101699.50;;;10.01;100.00
58473;BME280;44775;51.564;5.460;2023-02-18T10:57:29;101701.16;;;10.02;100.00
58473;BME280;44775;51.564;5.460;2023-02-18T11:02:40;101706.81;;;9.99;100.00
58473;BME280;44775;51.564;5.460;2023-02-18T11:05:25;101711.03;;;9.92;100.00
58473;BME280;44775;51.564;5.460;2023-02-18T11:07:55;101705.00;;;9.80;100.00
58473;BME280;44775;51.564;5.460;2023-02-18T11:10:24;101709.50;;;9.89;100.00
58473;BME280;44775;51.564;5.460;2023-02-18T11:12:55;101706.97;;;9.88;100.00
58473;BME280;44775;51.564;5.460;2023-02-18T11:15:24;101714.84;;;9.80;100.00
58473;BME280;44775;51.564;5.460;2023-02-18T11:17:53;101717.53;;;9.80;100.00
58473;BME280;44775;51.564;5.460;2023-02-18T11:22:44;101708.97;;;9.86;100.00
58473;BME280;44775;51.564;5.460;2023-02-18T11:25:23;101704.00;;;10.01;100.00
58473;BME280;44775;51.564;5.460;2023-02-18T11:27:57;101701.06;;;9.94;100.00
58473;BME280;44775;51.564;5.460;2023-02-18T11:30:36;101711.44;;;9.97;100.00
58473;BME280;44775;51.564;5.460;2023-02-18T11:33:06;101708.47;;;10.10;100.00
58473;BME280;44775;51.564;5.460;2023-02-18T11:35:33;101716.34;;;10.02;100.00
58473;BME280;44775;51.564;5.460;2023-02-18T11:38:01;101709.34;;;10.01;100.00
58473;BME280;44775;51.564;5.460;2023-02-18T11:40:35;101704.81;;;10.11;100.00
58473;BME280;44775;51.564;5.460;2023-02-18T11:43:13;101710.63;;;9.97;100.00
58473;BME280;44775;51.564;5.460;2023-02-18T11:45:40;101713.28;;;9.97;100.00
58473;BME280;44775;51.564;5.460;2023-02-18T11:50:33;101693.88;;;9.94;100.00
58473;BME280;44775;51.564;5.460;2023-02-18T11:52:59;101702.06;;;9.93;100.00
58473;BME280;44775;51.564;5.460;2023-02-18T11:55:29;101701.16;;;10.02;100.00
58473;BME280;44775;51.564;5.460;2023-02-18T12:00:40;101695.88;;;9.92;100.00
58473;BME280;44775;51.564;5.460;2023-02-18T12:06:00;101689.63;;;10.11;100.00
58473;BME280;44775;51.564;5.460;2023-02-18T12:08:30;101689.88;;;10.18;100.00
58473;BME280;44775;51.564;5.460;2023-02-18T12:11:26;101685.31;;;10.48;100.00
58473;BME280;44775;51.564;5.460;2023-02-18T12:13:54;101673.13;;;10.63;100.00
58473;BME280;44775;51.564;5.460;2023-02-18T12:16:35;101675.81;;;10.91;100.00
58473;BME280;44775;51.564;5.460;2023-02-18T12:21:42;101681.03;;;11.28;100.00
58473;BME280;44775;51.564;5.460;2023-02-18T12:27:04;101685.47;;;11.55;100.00
58473;BME280;44775;51.564;5.460;2023-02-18T12:29:49;101670.59;;;11.61;100.00
58473;BME280;44775;51.564;5.460;2023-02-18T12:32:29;101668.78;;;11.61;100.00
58473;BME280;44775;51.564;5.460;2023-02-18T12:35:12;101671.59;;;11.59;100.00
58473;BME280;44775;51.564;5.460;2023-02-18T12:37:48;101679.72;;;11.68;100.00
58473;BME280;44775;51.564;5.460;2023-02-18T12:45:39;101679.38;;;11.71;100.00
58473;BME280;44775;51.564;5.460;2023-02-18T12:49:01;101684.47;;;11.56;100.00
58473;BME280;44775;51.564;5.460;2023-02-18T12:57:02;101691.66;;;11.55;100.00
58473;BME280;44775;51.564;5.460;2023-02-18T12:59:48;101679.28;;;11.54;100.00
58473;BME280;44775;51.564;5.460;2023-02-18T13:05:43;101681.31;;;11.43;100.00
58473;BME280;44775;51.564;5.460;2023-02-18T13:11:19;101685.09;;;11.32;100.00
58473;BME280;44775;51.564;5.460;2023-02-18T13:14:03;101683.47;;;11.39;100.00
58473;BME280;44775;51.564;5.460;2023-02-18T13:16:34;101679.34;;;11.45;100.00
58473;BME280;44775;51.564;5.460;2023-02-18T13:19:24;101689.06;;;11.46;100.00
58473;BME280;44775;51.564;5.460;2023-02-18T13:22:11;101690.72;;;11.65;100.00
58473;BME280;44775;51.564;5.460;2023-02-18T13:24:39;101692.88;;;11.61;100.00
58473;BME280;44775;51.564;5.460;2023-02-18T13:30:20;101682.00;;;11.63;100.00
58473;BME280;44775;51.564;5.460;2023-02-18T13:36:08;101678.53;;;11.70;100.00
58473;BME280;44775;51.564;5.460;2023-02-18T13:38:57;101678.44;;;11.80;100.00
58473;BME280;44775;51.564;5.460;2023-02-18T13:41:27;101661.09;;;11.84;100.00
58473;BME280;44775;51.564;5.460;2023-02-18T13:43:52;101673.63;;;12.01;100.00
58473;BME280;44775;51.564;5.460;2023-02-18T13:46:20;101670.47;;;12.06;100.00
58473;BME280;44775;51.564;5.460;2023-02-18T13:51:31;101672.34;;;12.14;100.00
58473;BME280;44775;51.564;5.460;2023-02-18T13:54:05;101661.16;;;12.18;100.00
58473;BME280;44775;51.564;5.460;2023-02-18T13:56:34;101671.34;;;12.15;100.00
58473;BME280;44775;51.564;5.460;2023-02-18T13:59:27;101683.97;;;11.96;100.00
58473;BME280;44775;51.564;5.460;2023-02-18T14:02:19;101676.63;;;11.98;100.00
58473;BME280;44775;51.564;5.460;2023-02-18T14:04:56;101682.59;;;11.92;100.00
58473;BME280;44775;51.564;5.460;2023-02-18T14:25:52;101687.97;;;12.18;100.00
58473;BME280;44775;51.564;5.460;2023-02-18T14:31:23;101688.38;;;12.05;100.00
58473;BME280;44775;51.564;5.460;2023-02-18T14:36:38;101696.34;;;11.97;100.00
58473;BME280;44775;51.564;5.460;2023-02-18T14:45:04;101675.34;;;12.11;100.00
58473;BME280;44775;51.564;5.460;2023-02-18T14:48:08;101690.88;;;12.07;100.00
58473;BME280;44775;51.564;5.460;2023-02-18T14:50:41;101686.84;;;12.03;100.00
58473;BME280;44775;51.564;5.460;2023-02-18T14:53:13;101675.59;;;11.99;100.00
58473;BME280;44775;51.564;5.460;2023-02-18T14:55:44;101685.69;;;12.05;100.00
58473;BME280;44775;51.564;5.460;2023-02-18T14:58:35;101677.03;;;12.12;100.00